sensor_id;sensor_type;location;lat;lon;timestamp;temperature;humidity
2653;DHT22;1336;48.692;9.144;2022-10-23T05:00:25;13.80;97.20
2653;DHT22;1336;48.692;9.144;2022-10-23T05:01:17;13.80;97.20
2653;DHT22;1336;48.692;9.144;2022-10-23T05:02:08;13.80;97.20
2653;DHT22;1336;48.692;9.144;2022-10-23T05:02:59;13.80;97.20
2653;DHT22;1336;48.692;9.144;2022-10-23T05:03:50;13.80;97.20
2653;DHT22;1336;48.692;9.144;2022-10-23T05:04:43;13.80;97.20
2653;DHT22;1336;48.692;9.144;2022-10-23T05:05:34;13.80;97.20
2653;DHT22;1336;48.692;9.144;2022-10-23T05:06:25;13.80;97.20
2653;DHT22;1336;48.692;9.144;2022-10-23T05:07:16;13.80;97.20
2653;DHT22;1336;48.692;9.144;2022-10-23T05:08:08;13.80;97.20
2653;DHT22;1336;48.692;9.144;2022-10-23T05:08:59;13.80;97.20
2653;DHT22;1336;48.692;9.144;2022-10-23T05:09:51;13.80;97.20
2653;DHT22;1336;48.692;9.144;2022-10-23T05:10:42;13.80;97.20
2653;DHT22;1336;48.692;9.144;2022-10-23T05:11:33;13.80;97.20
2653;DHT22;1336;48.692;9.144;2022-10-23T05:12:24;13.80;97.20
2653;DHT22;1336;48.692;9.144;2022-10-23T05:13:17;13.80;97.20
2653;DHT22;1336;48.692;9.144;2022-10-23T05:14:09;13.80;97.20
2653;DHT22;1336;48.692;9.144;2022-10-23T05:15:01;13.80;97.20
2653;DHT22;1336;48.692;9.144;2022-10-23T05:15:53;13.80;97.20
2653;DHT22;1336;48.692;9.144;2022-10-23T05:16:48;13.80;97.20
2653;DHT22;1336;48.692;9.144;2022-10-23T05:17:42;13.80;97.20
2653;DHT22;1336;48.692;9.144;2022-10-23T05:18:38;13.70;97.20
2653;DHT22;1336;48.692;9.144;2022-10-23T05:19:33;13.70;97.20
2653;DHT22;1336;48.692;9.144;2022-10-23T05:20:30;13.70;97.20
2653;DHT22;1336;48.692;9.144;2022-10-23T05:21:23;13.70;97.20
2653;DHT22;1336;48.692;9.144;2022-10-23T05:22:17;13.70;97.20
2653;DHT22;1336;48.692;9.144;2022-10-23T05:23:10;13.70;97.20
2653;DHT22;1336;48.692;9.144;2022-10-23T05:24:02;13.70;97.20
2653;DHT22;1336;48.692;9.144;2022-10-23T05:24:53;13.70;97.20
2653;DHT22;1336;48.692;9.144;2022-10-23T05:25:45;13.70;97.20
2653;DHT22;1336;48.692;9.144;2022-10-23T05:26:36;13.70;97.20
2653;DHT22;1336;48.692;9.144;2022-10-23T05:27:27;13.70;97.20
2653;DHT22;1336;48.692;9.144;2022-10-23T05:28:18;13.70;97.20
2653;DHT22;1336;48.692;9.144;2022-10-23T05:29:10;13.70;97.20
2653;DHT22;1336;48.692;9.144;2022-10-23T05:30:00;13.70;97.20
2653;DHT22;1336;48.692;9.144;2022-10-23T05:30:54;13.70;97.20
2653;DHT22;1336;48.692;9.144;2022-10-23T05:31:45;13.70;97.20
2653;DHT22;1336;48.692;9.144;2022-10-23T05:32:39;13.70;97.20
2653;DHT22;1336;48.692;9.144;2022-10-23T05:33:30;13.80;97.20
2653;DHT22;1336;48.692;9.144;2022-10-23T05:34:25;13.70;97.20
2653;DHT22;1336;48.692;9.144;2022-10-23T05:35:19;13.80;97.20
2653;DHT22;1336;48.692;9.144;2022-10-23T05:36:13;13.80;97.20
2653;DHT22;1336;48.692;9.144;2022-10-23T05:37:05;13.80;97.20
2653;DHT22;1336;48.692;9.144;2022-10-23T05:37:59;13.80;97.20
2653;DHT22;1336;48.692;9.144;2022-10-23T05:38:51;13.80;97.20
2653;DHT22;1336;48.692;9.144;2022-10-23T05:39:43;13.80;97.20
2653;DHT22;1336;48.692;9.144;2022-10-23T05:40:34;13.80;97.20
2653;DHT22;1336;48.692;9.144;2022-10-23T05:41:25;13.80;97.20
2653;DHT22;1336;48.692;9.144;2022-10-23T05:42:16;13.80;97.20
2653;DHT22;1336;48.692;9.144;2022-10-23T05:43:08;13.80;97.20
2653;DHT22;1336;48.692;9.144;2022-10-23T05:43:58;13.80;97.20
2653;DHT22;1336;48.692;9.144;2022-10-23T05:44:50;13.80;97.20
2653;DHT22;1336;48.692;9.144;2022-10-23T05:45:41;13.80;97.20
2653;DHT22;1336;48.692;9.144;2022-10-23T05:46:38;13.80;97.20
2653;DHT22;1336;48.692;9.144;2022-10-23T05:47:29;13.80;97.20
2653;DHT22;1336;48.692;9.144;2022-10-23T05:48:20;13.80;97.20
2653;DHT22;1336;48.692;9.144;2022-10-23T05:49:11;13.80;97.20
2653;DHT22;1336;48.692;9.144;2022-10-23T05:50:04;13.80;97.20
2653;DHT22;1336;48.692;9.144;2022-10-23T05:50:54;13.80;97.20
2653;DHT22;1336;48.692;9.144;2022-10-23T05:51:46;13.80;97.20
2653;DHT22;1336;48.692;9.144;2022-10-23T05:52:37;13.80;97.20
2653;DHT22;1336;48.692;9.144;2022-10-23T05:53:28;13.80;97.20
2653;DHT22;1336;48.692;9.144;2022-10-23T05:54:19;13.80;97.20
2653;DHT22;1336;48.692;9.144;2022-10-23T05:55:11;13.80;97.20
2653;DHT22;1336;48.692;9.144;2022-10-23T05:56:05;13.80;97.20
2653;DHT22;1336;48.692;9.144;2022-10-23T05:56:57;13.80;97.20
2653;DHT22;1336;48.692;9.144;2022-10-23T05:57:48;13.70;97.20
2653;DHT22;1336;48.692;9.144;2022-10-23T05:58:40;13.80;97.20
2653;DHT22;1336;48.692;9.144;2022-10-23T05:59:30;13.70;97.20
2653;DHT22;1336;48.692;9.144;2022-10-23T06:00:22;13.70;97.20
2653;DHT22;1336;48.692;9.144;2022-10-23T06:01:13;13.70;97.20
2653;DHT22;1336;48.692;9.144;2022-10-23T06:02:08;13.70;97.20
2653;DHT22;1336;48.692;9.144;2022-10-23T06:02:59;13.70;97.20
2653;DHT22;1336;48.692;9.144;2022-10-23T06:03:50;13.70;97.20
2653;DHT22;1336;48.692;9.144;2022-10-23T06:04:41;13.70;97.20
2653;DHT22;1336;48.692;9.144;2022-10-23T06:05:33;13.70;97.20
2653;DHT22;1336;48.692;9.144;2022-10-23T06:06:24;13.70;97.20
2653;DHT22;1336;48.692;9.144;2022-10-23T06:07:15;13.70;97.20
2653;DHT22;1336;48.692;9.144;2022-10-23T06:08:06;13.70;97.20
2653;DHT22;1336;48.692;9.144;2022-10-23T06:08:58;13.70;97.20
2653;DHT22;1336;48.692;9.144;2022-10-23T06:09:48;13.70;97.20
2653;DHT22;1336;48.692;9.144;2022-10-23T06:10:40;13.70;97.20
2653;DHT22;1336;48.692;9.144;2022-10-23T06:11:31;13.70;97.20
2653;DHT22;1336;48.692;9.144;2022-10-23T06:12:23;13.70;97.20
2653;DHT22;1336;48.692;9.144;2022-10-23T06:13:14;13.70;97.20
2653;DHT22;1336;48.692;9.144;2022-10-23T06:14:05;13.70;97.20
2653;DHT22;1336;48.692;9.144;2022-10-23T06:14:56;13.70;97.20
2653;DHT22;1336;48.692;9.144;2022-10-23T06:15:48;13.70;97.20
2653;DHT22;1336;48.692;9.144;2022-10-23T06:16:39;13.70;97.20
2653;DHT22;1336;48.692;9.144;2022-10-23T06:17:35;13.70;97.20
2653;DHT22;1336;48.692;9.144;2022-10-23T06:18:26;13.70;97.20
2653;DHT22;1336;48.692;9.144;2022-10-23T06:19:18;13.70;97.20
2653;DHT22;1336;48.692;9.144;2022-10-23T06:20:09;13.70;97.20
2653;DHT22;1336;48.692;9.144;2022-10-23T06:21:01;13.70;97.20
2653;DHT22;1336;48.692;9.144;2022-10-23T06:21:52;13.70;97.20
2653;DHT22;1336;48.692;9.144;2022-10-23T06:22:44;13.70;97.20
2653;DHT22;1336;48.692;9.144;2022-10-23T06:23:36;13.70;97.20
2653;DHT22;1336;48.692;9.144;2022-10-23T06:24:28;13.70;97.20
2653;DHT22;1336;48.692;9.144;2022-10-23T06:25:19;13.70;97.20
2653;DHT22;1336;48.692;9.144;2022-10-23T06:26:12;13.70;97.20
2653;DHT22;1336;48.692;9.144;2022-10-23T06:27:03;13.70;97.20
2653;DHT22;1336;48.692;9.144;2022-10-23T06:27:55;13.70;97.20
2653;DHT22;1336;48.692;9.144;2022-10-23T06:28:46;13.70;97.20
2653;DHT22;1336;48.692;9.144;2022-10-23T06:29:38;13.70;97.20
2653;DHT22;1336;48.692;9.144;2022-10-23T06:30:29;13.80;97.20
2653;DHT22;1336;48.692;9.144;2022-10-23T06:31:20;13.80;97.20
2653;DHT22;1336;48.692;9.144;2022-10-23T06:32:16;13.80;97.20
2653;DHT22;1336;48.692;9.144;2022-10-23T06:33:09;13.80;97.20
2653;DHT22;1336;48.692;9.144;2022-10-23T06:34:00;13.80;97.20
2653;DHT22;1336;48.692;9.144;2022-10-23T06:34:51;13.80;97.20
2653;DHT22;1336;48.692;9.144;2022-10-23T06:35:42;13.80;97.20
2653;DHT22;1336;48.692;9.144;2022-10-23T06:36:34;13.80;97.20
2653;DHT22;1336;48.692;9.144;2022-10-23T06:37:27;13.80;97.20
2653;DHT22;1336;48.692;9.144;2022-10-23T06:38:19;13.80;97.20
2653;DHT22;1336;48.692;9.144;2022-10-23T06:39:09;13.80;97.20
2653;DHT22;1336;48.692;9.144;2022-10-23T06:40:01;13.90;97.20
2653;DHT22;1336;48.692;9.144;2022-10-23T06:40:52;13.90;97.20
2653;DHT22;1336;48.692;9.144;2022-10-23T06:41:44;13.90;97.20
2653;DHT22;1336;48.692;9.144;2022-10-23T06:42:35;13.90;97.20
2653;DHT22;1336;48.692;9.144;2022-10-23T06:43:26;13.90;97.20
2653;DHT22;1336;48.692;9.144;2022-10-23T06:44:17;13.90;97.20
2653;DHT22;1336;48.692;9.144;2022-10-23T06:45:09;13.90;97.20
2653;DHT22;1336;48.692;9.144;2022-10-23T06:46:01;13.90;97.20
2653;DHT22;1336;48.692;9.144;2022-10-23T06:46:53;14.00;97.20
2653;DHT22;1336;48.692;9.144;2022-10-23T06:47:43;14.00;97.20
2653;DHT22;1336;48.692;9.144;2022-10-23T06:48:36;14.00;97.20
2653;DHT22;1336;48.692;9.144;2022-10-23T06:49:27;14.00;97.20
2653;DHT22;1336;48.692;9.144;2022-10-23T06:50:19;14.00;97.20
2653;DHT22;1336;48.692;9.144;2022-10-23T06:51:11;14.00;97.20
2653;DHT22;1336;48.692;9.144;2022-10-23T06:52:03;14.00;97.20
2653;DHT22;1336;48.692;9.144;2022-10-23T06:52:54;14.10;97.20
2653;DHT22;1336;48.692;9.144;2022-10-23T06:53:46;14.10;97.20
2653;DHT22;1336;48.692;9.144;2022-10-23T06:54:37;14.10;97.20
2653;DHT22;1336;48.692;9.144;2022-10-23T06:55:28;14.10;97.20
2653;DHT22;1336;48.692;9.144;2022-10-23T06:56:19;14.10;97.20
2653;DHT22;1336;48.692;9.144;2022-10-23T06:57:12;14.10;97.20
2653;DHT22;1336;48.692;9.144;2022-10-23T06:58:02;14.10;97.20
2653;DHT22;1336;48.692;9.144;2022-10-23T06:58:59;14.10;97.20
2653;DHT22;1336;48.692;9.144;2022-10-23T06:59:50;14.20;97.20
2653;DHT22;1336;48.692;9.144;2022-10-23T07:00:42;14.20;97.20
2653;DHT22;1336;48.692;9.144;2022-10-23T07:01:34;14.20;97.20
2653;DHT22;1336;48.692;9.144;2022-10-23T07:02:26;14.20;97.20
2653;DHT22;1336;48.692;9.144;2022-10-23T07:03:16;14.20;97.20
2653;DHT22;1336;48.692;9.144;2022-10-23T07:04:10;14.20;97.20
2653;DHT22;1336;48.692;9.144;2022-10-23T07:05:03;14.20;97.20
2653;DHT22;1336;48.692;9.144;2022-10-23T07:05:55;14.30;97.20
2653;DHT22;1336;48.692;9.144;2022-10-23T07:06:49;14.30;97.20
2653;DHT22;1336;48.692;9.144;2022-10-23T07:07:40;14.30;97.20
2653;DHT22;1336;48.692;9.144;2022-10-23T07:08:31;14.30;97.20
2653;DHT22;1336;48.692;9.144;2022-10-23T07:09:23;14.30;97.20
2653;DHT22;1336;48.692;9.144;2022-10-23T07:10:14;14.30;97.20
2653;DHT22;1336;48.692;9.144;2022-10-23T07:11:08;14.40;97.20
2653;DHT22;1336;48.692;9.144;2022-10-23T07:11:59;14.40;97.20
2653;DHT22;1336;48.692;9.144;2022-10-23T07:12:51;14.40;97.20
2653;DHT22;1336;48.692;9.144;2022-10-23T07:13:42;14.50;97.20
2653;DHT22;1336;48.692;9.144;2022-10-23T07:14:34;14.50;97.20
2653;DHT22;1336;48.692;9.144;2022-10-23T07:15:25;14.50;97.20
2653;DHT22;1336;48.692;9.144;2022-10-23T07:16:19;14.50;97.20
2653;DHT22;1336;48.692;9.144;2022-10-23T07:17:10;14.50;97.20
2653;DHT22;1336;48.692;9.144;2022-10-23T07:18:02;14.60;97.20
2653;DHT22;1336;48.692;9.144;2022-10-23T07:18:54;14.60;97.20
2653;DHT22;1336;48.692;9.144;2022-10-23T07:19:50;14.70;97.20
2653;DHT22;1336;48.692;9.144;2022-10-23T07:20:41;14.70;97.20
2653;DHT22;1336;48.692;9.144;2022-10-23T07:21:34;14.70;97.20
2653;DHT22;1336;48.692;9.144;2022-10-23T07:22:25;14.80;97.20
2653;DHT22;1336;48.692;9.144;2022-10-23T07:23:17;14.80;97.20
2653;DHT22;1336;48.692;9.144;2022-10-23T07:24:07;14.80;97.20
2653;DHT22;1336;48.692;9.144;2022-10-23T07:24:59;14.90;97.20
2653;DHT22;1336;48.692;9.144;2022-10-23T07:25:50;14.90;97.20
2653;DHT22;1336;48.692;9.144;2022-10-23T07:26:42;14.90;97.20
2653;DHT22;1336;48.692;9.144;2022-10-23T07:27:35;15.00;97.20
2653;DHT22;1336;48.692;9.144;2022-10-23T07:28:27;15.00;97.20
2653;DHT22;1336;48.692;9.144;2022-10-23T07:29:18;15.00;97.20
2653;DHT22;1336;48.692;9.144;2022-10-23T07:30:11;15.10;97.20
2653;DHT22;1336;48.692;9.144;2022-10-23T07:31:02;15.10;97.20
2653;DHT22;1336;48.692;9.144;2022-10-23T07:31:54;15.10;97.20
2653;DHT22;1336;48.692;9.144;2022-10-23T07:32:44;15.20;97.20
2653;DHT22;1336;48.692;9.144;2022-10-23T07:33:37;15.20;97.20
2653;DHT22;1336;48.692;9.144;2022-10-23T07:34:27;15.20;97.20
2653;DHT22;1336;48.692;9.144;2022-10-23T07:35:21;15.20;97.20
2653;DHT22;1336;48.692;9.144;2022-10-23T07:36:11;15.30;97.20
2653;DHT22;1336;48.692;9.144;2022-10-23T07:37:03;15.30;97.20
2653;DHT22;1336;48.692;9.144;2022-10-23T07:37:54;15.30;97.20
2653;DHT22;1336;48.692;9.144;2022-10-23T07:38:46;15.30;97.20
2653;DHT22;1336;48.692;9.144;2022-10-23T07:39:37;15.30;97.20
2653;DHT22;1336;48.692;9.144;2022-10-23T07:40:28;15.30;97.20
2653;DHT22;1336;48.692;9.144;2022-10-23T07:41:19;15.30;97.20
2653;DHT22;1336;48.692;9.144;2022-10-23T07:42:11;15.30;97.20
2653;DHT22;1336;48.692;9.144;2022-10-23T07:43:03;15.30;97.20
2653;DHT22;1336;48.692;9.144;2022-10-23T07:43:55;15.30;97.20
2653;DHT22;1336;48.692;9.144;2022-10-23T07:44:46;15.40;97.20
2653;DHT22;1336;48.692;9.144;2022-10-23T07:45:38;15.40;97.20
2653;DHT22;1336;48.692;9.144;2022-10-23T07:46:29;15.40;97.20
2653;DHT22;1336;48.692;9.144;2022-10-23T07:47:20;15.40;97.20
2653;DHT22;1336;48.692;9.144;2022-10-23T07:48:11;15.40;97.20
2653;DHT22;1336;48.692;9.144;2022-10-23T07:49:03;15.40;97.20
2653;DHT22;1336;48.692;9.144;2022-10-23T07:49:54;15.50;97.20
2653;DHT22;1336;48.692;9.144;2022-10-23T07:50:47;15.50;97.20
2653;DHT22;1336;48.692;9.144;2022-10-23T07:51:37;15.50;97.20
2653;DHT22;1336;48.692;9.144;2022-10-23T07:52:29;15.50;97.20
2653;DHT22;1336;48.692;9.144;2022-10-23T07:53:22;15.60;97.20
2653;DHT22;1336;48.692;9.144;2022-10-23T07:54:14;15.60;97.20
2653;DHT22;1336;48.692;9.144;2022-10-23T07:55:06;15.60;97.20
2653;DHT22;1336;48.692;9.144;2022-10-23T07:55:59;15.70;97.20
2653;DHT22;1336;48.692;9.144;2022-10-23T07:56:50;15.70;97.20
2653;DHT22;1336;48.692;9.144;2022-10-23T07:57:42;15.80;97.20
2653;DHT22;1336;48.692;9.144;2022-10-23T07:58:33;15.80;97.20
2653;DHT22;1336;48.692;9.144;2022-10-23T07:59:25;15.90;97.20
2653;DHT22;1336;48.692;9.144;2022-10-23T08:00:16;15.90;97.20
2653;DHT22;1336;48.692;9.144;2022-10-23T08:01:15;15.90;97.20
2653;DHT22;1336;48.692;9.144;2022-10-23T08:02:10;16.00;97.20
2653;DHT22;1336;48.692;9.144;2022-10-23T08:03:02;16.00;97.20
2653;DHT22;1336;48.692;9.144;2022-10-23T08:03:52;16.00;97.20
2653;DHT22;1336;48.692;9.144;2022-10-23T08:04:47;16.10;97.20
2653;DHT22;1336;48.692;9.144;2022-10-23T08:05:38;16.10;97.20
2653;DHT22;1336;48.692;9.144;2022-10-23T08:06:32;16.10;97.20
2653;DHT22;1336;48.692;9.144;2022-10-23T08:07:24;16.10;97.20
2653;DHT22;1336;48.692;9.144;2022-10-23T08:08:16;16.20;97.20
2653;DHT22;1336;48.692;9.144;2022-10-23T08:09:07;16.20;97.20
2653;DHT22;1336;48.692;9.144;2022-10-23T08:09:58;16.20;97.20
2653;DHT22;1336;48.692;9.144;2022-10-23T08:10:51;16.30;97.20
2653;DHT22;1336;48.692;9.144;2022-10-23T08:11:43;16.30;97.20
2653;DHT22;1336;48.692;9.144;2022-10-23T08:12:34;16.30;97.20
2653;DHT22;1336;48.692;9.144;2022-10-23T08:13:27;16.40;97.20
2653;DHT22;1336;48.692;9.144;2022-10-23T08:14:18;16.40;97.20
2653;DHT22;1336;48.692;9.144;2022-10-23T08:15:09;16.50;97.20
2653;DHT22;1336;48.692;9.144;2022-10-23T08:16:00;16.50;97.20
2653;DHT22;1336;48.692;9.144;2022-10-23T08:16:52;16.60;97.20
2653;DHT22;1336;48.692;9.144;2022-10-23T08:17:43;16.60;97.20
2653;DHT22;1336;48.692;9.144;2022-10-23T08:18:35;16.70;97.20
2653;DHT22;1336;48.692;9.144;2022-10-23T08:19:25;16.70;97.20
2653;DHT22;1336;48.692;9.144;2022-10-23T08:20:17;16.80;97.20
2653;DHT22;1336;48.692;9.144;2022-10-23T08:21:09;16.90;97.20
2653;DHT22;1336;48.692;9.144;2022-10-23T08:22:03;16.90;97.20
2653;DHT22;1336;48.692;9.144;2022-10-23T08:22:54;17.00;97.20
2653;DHT22;1336;48.692;9.144;2022-10-23T08:23:46;17.00;97.20
2653;DHT22;1336;48.692;9.144;2022-10-23T08:24:36;17.10;97.20
2653;DHT22;1336;48.692;9.144;2022-10-23T08:25:28;17.10;97.20
2653;DHT22;1336;48.692;9.144;2022-10-23T08:26:19;17.20;97.20
2653;DHT22;1336;48.692;9.144;2022-10-23T08:27:11;17.30;97.20
2653;DHT22;1336;48.692;9.144;2022-10-23T08:28:02;17.40;97.20
2653;DHT22;1336;48.692;9.144;2022-10-23T08:28:56;17.40;97.20
2653;DHT22;1336;48.692;9.144;2022-10-23T08:29:47;17.50;97.20
2653;DHT22;1336;48.692;9.144;2022-10-23T08:30:39;17.60;97.20
2653;DHT22;1336;48.692;9.144;2022-10-23T08:31:30;17.70;97.20
2653;DHT22;1336;48.692;9.144;2022-10-23T08:32:22;17.70;97.20
2653;DHT22;1336;48.692;9.144;2022-10-23T08:33:12;17.80;97.20
2653;DHT22;1336;48.692;9.144;2022-10-23T08:34:04;17.90;97.20
2653;DHT22;1336;48.692;9.144;2022-10-23T08:34:55;17.90;97.20
2653;DHT22;1336;48.692;9.144;2022-10-23T08:35:46;18.00;97.20
2653;DHT22;1336;48.692;9.144;2022-10-23T08:36:37;18.00;97.20
2653;DHT22;1336;48.692;9.144;2022-10-23T08:37:31;18.00;97.20
2653;DHT22;1336;48.692;9.144;2022-10-23T08:38:22;18.00;97.20
2653;DHT22;1336;48.692;9.144;2022-10-23T08:39:14;18.00;97.20
2653;DHT22;1336;48.692;9.144;2022-10-23T08:40:06;18.00;97.20
2653;DHT22;1336;48.692;9.144;2022-10-23T08:40:58;18.00;97.20
2653;DHT22;1336;48.692;9.144;2022-10-23T08:41:51;18.00;97.20
2653;DHT22;1336;48.692;9.144;2022-10-23T08:42:49;18.00;97.20
2653;DHT22;1336;48.692;9.144;2022-10-23T08:43:46;18.10;97.20
2653;DHT22;1336;48.692;9.144;2022-10-23T08:44:47;18.10;97.20
2653;DHT22;1336;48.692;9.144;2022-10-23T08:45:43;18.10;97.20
2653;DHT22;1336;48.692;9.144;2022-10-23T08:46:40;18.00;97.20
2653;DHT22;1336;48.692;9.144;2022-10-23T08:47:37;18.00;97.20
2653;DHT22;1336;48.692;9.144;2022-10-23T08:48:32;18.00;97.20
2653;DHT22;1336;48.692;9.144;2022-10-23T08:49:42;18.10;97.20
2653;DHT22;1336;48.692;9.144;2022-10-23T08:50:39;18.10;97.20
2653;DHT22;1336;48.692;9.144;2022-10-23T08:51:35;18.10;97.20
2653;DHT22;1336;48.692;9.144;2022-10-23T08:52:35;18.10;97.20
2653;DHT22;1336;48.692;9.144;2022-10-23T08:53:30;18.10;97.20
2653;DHT22;1336;48.692;9.144;2022-10-23T08:54:26;18.20;97.20
2653;DHT22;1336;48.692;9.144;2022-10-23T08:55:22;18.20;97.20
2653;DHT22;1336;48.692;9.144;2022-10-23T08:56:21;18.30;97.20
2653;DHT22;1336;48.692;9.144;2022-10-23T08:57:14;18.30;97.20
2653;DHT22;1336;48.692;9.144;2022-10-23T08:58:11;18.30;97.20
2653;DHT22;1336;48.692;9.144;2022-10-23T08:59:12;18.40;97.20
2653;DHT22;1336;48.692;9.144;2022-10-23T09:00:12;18.40;97.20
2653;DHT22;1336;48.692;9.144;2022-10-23T09:01:22;18.50;97.20
2653;DHT22;1336;48.692;9.144;2022-10-23T09:02:21;18.50;97.20
2653;DHT22;1336;48.692;9.144;2022-10-23T09:03:13;18.60;97.20
2653;DHT22;1336;48.692;9.144;2022-10-23T09:04:06;18.70;97.20
2653;DHT22;1336;48.692;9.144;2022-10-23T09:04:59;18.70;97.20
2653;DHT22;1336;48.692;9.144;2022-10-23T09:06:01;18.80;97.20
2653;DHT22;1336;48.692;9.144;2022-10-23T09:07:04;18.80;97.20
2653;DHT22;1336;48.692;9.144;2022-10-23T09:08:18;18.90;97.20
2653;DHT22;1336;48.692;9.144;2022-10-23T09:09:25;19.00;97.20
2653;DHT22;1336;48.692;9.144;2022-10-23T09:10:36;19.10;97.20
2653;DHT22;1336;48.692;9.144;2022-10-23T09:11:36;19.20;97.20
2653;DHT22;1336;48.692;9.144;2022-10-23T09:12:33;19.30;97.20
2653;DHT22;1336;48.692;9.144;2022-10-23T09:13:38;19.40;97.20
2653;DHT22;1336;48.692;9.144;2022-10-23T09:15:59;19.50;97.20
2653;DHT22;1336;48.692;9.144;2022-10-23T09:17:03;19.50;97.20
2653;DHT22;1336;48.692;9.144;2022-10-23T09:18:09;19.60;97.20
2653;DHT22;1336;48.692;9.144;2022-10-23T09:19:01;19.70;97.20
2653;DHT22;1336;48.692;9.144;2022-10-23T09:20:12;19.70;97.20
2653;DHT22;1336;48.692;9.144;2022-10-23T09:21:08;19.80;97.20
2653;DHT22;1336;48.692;9.144;2022-10-23T09:22:00;19.90;97.20
2653;DHT22;1336;48.692;9.144;2022-10-23T09:22:56;20.00;97.20
2653;DHT22;1336;48.692;9.144;2022-10-23T09:23:49;20.10;97.20
2653;DHT22;1336;48.692;9.144;2022-10-23T09:24:41;20.10;97.20
2653;DHT22;1336;48.692;9.144;2022-10-23T09:25:37;20.20;97.20
2653;DHT22;1336;48.692;9.144;2022-10-23T09:26:28;20.30;97.20
2653;DHT22;1336;48.692;9.144;2022-10-23T09:27:20;20.40;97.20
2653;DHT22;1336;48.692;9.144;2022-10-23T09:28:16;20.40;97.20
2653;DHT22;1336;48.692;9.144;2022-10-23T09:29:17;20.50;97.20
2653;DHT22;1336;48.692;9.144;2022-10-23T09:30:11;20.60;97.20
2653;DHT22;1336;48.692;9.144;2022-10-23T09:31:06;20.60;97.20
2653;DHT22;1336;48.692;9.144;2022-10-23T09:31:59;20.70;97.20
2653;DHT22;1336;48.692;9.144;2022-10-23T09:32:51;20.80;97.20
2653;DHT22;1336;48.692;9.144;2022-10-23T09:33:53;20.90;97.20
2653;DHT22;1336;48.692;9.144;2022-10-23T09:34:50;21.00;97.20
2653;DHT22;1336;48.692;9.144;2022-10-23T09:35:53;21.10;97.20
2653;DHT22;1336;48.692;9.144;2022-10-23T09:36:49;21.20;97.20
2653;DHT22;1336;48.692;9.144;2022-10-23T09:37:45;21.20;97.20
2653;DHT22;1336;48.692;9.144;2022-10-23T09:38:47;21.30;97.20
2653;DHT22;1336;48.692;9.144;2022-10-23T09:39:39;21.40;97.20
2653;DHT22;1336;48.692;9.144;2022-10-23T09:40:38;21.50;97.20
2653;DHT22;1336;48.692;9.144;2022-10-23T09:41:34;21.50;97.20
2653;DHT22;1336;48.692;9.144;2022-10-23T09:42:26;21.60;97.20
2653;DHT22;1336;48.692;9.144;2022-10-23T09:43:18;21.70;97.20
2653;DHT22;1336;48.692;9.144;2022-10-23T09:44:18;21.70;97.20
2653;DHT22;1336;48.692;9.144;2022-10-23T09:45:21;21.80;97.20
2653;DHT22;1336;48.692;9.144;2022-10-23T09:46:13;21.80;97.20
2653;DHT22;1336;48.692;9.144;2022-10-23T09:47:09;21.90;97.20
2653;DHT22;1336;48.692;9.144;2022-10-23T09:48:19;22.00;97.20
2653;DHT22;1336;48.692;9.144;2022-10-23T09:49:18;22.00;97.20
2653;DHT22;1336;48.692;9.144;2022-10-23T09:50:18;22.10;97.20
2653;DHT22;1336;48.692;9.144;2022-10-23T09:51:17;22.20;97.20
2653;DHT22;1336;48.692;9.144;2022-10-23T09:52:21;22.30;97.20
2653;DHT22;1336;48.692;9.144;2022-10-23T09:53:15;22.40;97.20
2653;DHT22;1336;48.692;9.144;2022-10-23T09:54:12;22.50;97.20
2653;DHT22;1336;48.692;9.144;2022-10-23T09:55:19;22.60;97.20
2653;DHT22;1336;48.692;9.144;2022-10-23T09:56:23;22.80;97.20
2653;DHT22;1336;48.692;9.144;2022-10-23T09:57:27;22.90;97.20
2653;DHT22;1336;48.692;9.144;2022-10-23T09:58:24;23.00;97.20
2653;DHT22;1336;48.692;9.144;2022-10-23T09:59:20;23.10;97.20
2653;DHT22;1336;48.692;9.144;2022-10-23T10:00:16;23.20;97.20
2653;DHT22;1336;48.692;9.144;2022-10-23T10:01:21;23.30;97.20
2653;DHT22;1336;48.692;9.144;2022-10-23T10:02:23;23.40;97.20
2653;DHT22;1336;48.692;9.144;2022-10-23T10:03:20;23.50;97.20
2653;DHT22;1336;48.692;9.144;2022-10-23T10:04:12;23.50;97.20
2653;DHT22;1336;48.692;9.144;2022-10-23T10:05:20;23.50;97.20
2653;DHT22;1336;48.692;9.144;2022-10-23T10:06:21;23.50;97.20
2653;DHT22;1336;48.692;9.144;2022-10-23T10:07:18;23.50;97.20
2653;DHT22;1336;48.692;9.144;2022-10-23T10:08:16;23.50;97.20
2653;DHT22;1336;48.692;9.144;2022-10-23T10:09:12;23.50;97.20
2653;DHT22;1336;48.692;9.144;2022-10-23T10:10:09;23.50;97.20
2653;DHT22;1336;48.692;9.144;2022-10-23T10:11:12;23.50;97.20
2653;DHT22;1336;48.692;9.144;2022-10-23T10:12:29;23.50;97.20
2653;DHT22;1336;48.692;9.144;2022-10-23T10:13:37;23.50;97.20
2653;DHT22;1336;48.692;9.144;2022-10-23T10:14:54;23.40;97.20
2653;DHT22;1336;48.692;9.144;2022-10-23T10:15:50;23.40;97.20
2653;DHT22;1336;48.692;9.144;2022-10-23T10:16:48;23.30;97.20
2653;DHT22;1336;48.692;9.144;2022-10-23T10:17:46;23.30;97.20
2653;DHT22;1336;48.692;9.144;2022-10-23T10:18:44;23.30;97.20
2653;DHT22;1336;48.692;9.144;2022-10-23T10:19:46;23.20;97.20
2653;DHT22;1336;48.692;9.144;2022-10-23T10:21:05;23.20;97.20
2653;DHT22;1336;48.692;9.144;2022-10-23T10:22:04;23.20;97.20
2653;DHT22;1336;48.692;9.144;2022-10-23T10:23:04;23.10;97.20
2653;DHT22;1336;48.692;9.144;2022-10-23T10:24:00;23.10;97.20
2653;DHT22;1336;48.692;9.144;2022-10-23T10:24:56;23.00;97.20
2653;DHT22;1336;48.692;9.144;2022-10-23T10:25:57;23.00;97.20
2653;DHT22;1336;48.692;9.144;2022-10-23T10:26:57;23.00;97.20
2653;DHT22;1336;48.692;9.144;2022-10-23T10:28:02;23.00;97.20
2653;DHT22;1336;48.692;9.144;2022-10-23T10:29:09;23.00;97.20
2653;DHT22;1336;48.692;9.144;2022-10-23T10:30:10;23.00;97.20
2653;DHT22;1336;48.692;9.144;2022-10-23T10:31:09;23.10;97.20
2653;DHT22;1336;48.692;9.144;2022-10-23T10:32:19;23.20;97.20
2653;DHT22;1336;48.692;9.144;2022-10-23T10:33:18;23.30;97.20
2653;DHT22;1336;48.692;9.144;2022-10-23T10:34:17;23.30;97.20
2653;DHT22;1336;48.692;9.144;2022-10-23T10:35:19;23.30;97.20
2653;DHT22;1336;48.692;9.144;2022-10-23T10:36:24;23.30;97.20
2653;DHT22;1336;48.692;9.144;2022-10-23T10:37:25;23.20;97.20
2653;DHT22;1336;48.692;9.144;2022-10-23T10:38:34;23.20;97.20
2653;DHT22;1336;48.692;9.144;2022-10-23T10:39:35;23.20;97.20
2653;DHT22;1336;48.692;9.144;2022-10-23T10:40:33;23.20;97.20
2653;DHT22;1336;48.692;9.144;2022-10-23T10:41:48;23.20;97.20
2653;DHT22;1336;48.692;9.144;2022-10-23T10:42:59;23.20;97.20
2653;DHT22;1336;48.692;9.144;2022-10-23T10:44:28;23.30;97.20
2653;DHT22;1336;48.692;9.144;2022-10-23T10:45:28;23.30;97.20
2653;DHT22;1336;48.692;9.144;2022-10-23T10:46:26;23.30;97.20
2653;DHT22;1336;48.692;9.144;2022-10-23T10:47:22;23.20;97.20
2653;DHT22;1336;48.692;9.144;2022-10-23T10:48:30;23.20;97.20
2653;DHT22;1336;48.692;9.144;2022-10-23T10:49:32;23.20;97.20
2653;DHT22;1336;48.692;9.144;2022-10-23T10:50:42;23.10;97.20
2653;DHT22;1336;48.692;9.144;2022-10-23T10:51:37;23.10;97.20
2653;DHT22;1336;48.692;9.144;2022-10-23T10:52:36;23.00;97.20
2653;DHT22;1336;48.692;9.144;2022-10-23T10:53:39;23.00;97.20
2653;DHT22;1336;48.692;9.144;2022-10-23T10:54:44;22.90;97.20
2653;DHT22;1336;48.692;9.144;2022-10-23T10:55:38;22.80;97.20
2653;DHT22;1336;48.692;9.144;2022-10-23T10:56:32;22.80;97.20
2653;DHT22;1336;48.692;9.144;2022-10-23T10:57:30;22.80;97.20
2653;DHT22;1336;48.692;9.144;2022-10-23T10:58:34;22.70;97.20